sensor_id;sensor_type;location;lat;lon;timestamp;P1;durP1;ratioP1;P2;durP2;ratioP2
53644;SDS011;39547;45.554;12.068;2024-03-23T00:54:32;51.63;;;35.00;;
53644;SDS011;39547;45.554;12.068;2024-03-23T01:00:33;53.17;;;36.55;;
53644;SDS011;39547;45.554;12.068;2024-03-23T01:06:35;52.53;;;35.72;;
53644;SDS011;39547;45.554;12.068;2024-03-23T01:12:39;55.03;;;36.03;;
53644;SDS011;39547;45.554;12.068;2024-03-23T01:18:43;53.78;;;36.90;;
53644;SDS011;39547;45.554;12.068;2024-03-23T01:24:45;51.00;;;34.65;;
53644;SDS011;39547;45.554;12.068;2024-03-23T01:30:49;52.95;;;36.42;;
53644;SDS011;39547;45.554;12.068;2024-03-23T01:36:51;49.30;;;34.08;;
53644;SDS011;39547;45.554;12.068;2024-03-23T01:42:55;51.72;;;35.72;;
53644;SDS011;39547;45.554;12.068;2024-03-23T01:48:58;52.15;;;34.65;;
53644;SDS011;39547;45.554;12.068;2024-03-23T01:55:00;51.70;;;35.83;;
53644;SDS011;39547;45.554;12.068;2024-03-23T02:01:02;55.72;;;37.10;;
53644;SDS011;39547;45.554;12.068;2024-03-23T02:07:04;57.80;;;39.70;;
53644;SDS011;39547;45.554;12.068;2024-03-23T02:13:09;51.90;;;35.47;;
53644;SDS011;39547;45.554;12.068;2024-03-23T02:19:10;54.25;;;35.13;;
53644;SDS011;39547;45.554;12.068;2024-03-23T02:25:11;49.63;;;34.88;;
53644;SDS011;39547;45.554;12.068;2024-03-23T02:31:13;51.22;;;33.25;;
53644;SDS011;39547;45.554;12.068;2024-03-23T02:37:16;50.55;;;34.97;;
53644;SDS011;39547;45.554;12.068;2024-03-23T02:43:17;52.80;;;34.88;;
53644;SDS011;39547;45.554;12.068;2024-03-23T02:49:19;49.65;;;33.88;;
53644;SDS011;39547;45.554;12.068;2024-03-23T02:55:22;52.85;;;33.28;;
53644;SDS011;39547;45.554;12.068;2024-03-23T03:01:24;47.88;;;32.22;;
53644;SDS011;39547;45.554;12.068;2024-03-23T03:07:26;46.90;;;32.05;;
53644;SDS011;39547;45.554;12.068;2024-03-23T03:13:28;47.67;;;31.95;;
53644;SDS011;39547;45.554;12.068;2024-03-23T03:19:30;50.25;;;33.63;;
53644;SDS011;39547;45.554;12.068;2024-03-23T03:25:31;54.28;;;35.33;;
53644;SDS011;39547;45.554;12.068;2024-03-23T03:31:33;50.20;;;32.90;;
53644;SDS011;39547;45.554;12.068;2024-03-23T03:37:35;46.60;;;31.92;;
53644;SDS011;39547;45.554;12.068;2024-03-23T03:43:36;51.78;;;34.47;;
53644;SDS011;39547;45.554;12.068;2024-03-23T03:49:39;54.72;;;35.38;;
53644;SDS011;39547;45.554;12.068;2024-03-23T03:55:40;51.97;;;34.50;;
53644;SDS011;39547;45.554;12.068;2024-03-23T04:01:42;49.30;;;33.53;;
53644;SDS011;39547;45.554;12.068;2024-03-23T04:07:44;49.03;;;32.90;;
53644;SDS011;39547;45.554;12.068;2024-03-23T04:13:45;47.83;;;32.35;;
53644;SDS011;39547;45.554;12.068;2024-03-23T04:19:47;46.88;;;31.73;;
53644;SDS011;39547;45.554;12.068;2024-03-23T04:25:49;46.03;;;31.52;;
53644;SDS011;39547;45.554;12.068;2024-03-23T04:31:54;45.72;;;30.50;;
53644;SDS011;39547;45.554;12.068;2024-03-23T04:37:56;45.10;;;28.90;;
53644;SDS011;39547;45.554;12.068;2024-03-23T04:44:02;44.70;;;29.05;;
53644;SDS011;39547;45.554;12.068;2024-03-23T04:50:04;43.35;;;29.10;;
53644;SDS011;39547;45.554;12.068;2024-03-23T04:56:06;45.20;;;28.83;;
53644;SDS011;39547;45.554;12.068;2024-03-23T05:02:07;45.42;;;29.23;;
53644;SDS011;39547;45.554;12.068;2024-03-23T05:08:09;46.67;;;29.33;;
53644;SDS011;39547;45.554;12.068;2024-03-23T05:14:12;46.10;;;28.58;;
53644;SDS011;39547;45.554;12.068;2024-03-23T05:20:14;41.53;;;26.63;;
53644;SDS011;39547;45.554;12.068;2024-03-23T05:26:17;44.20;;;28.25;;
53644;SDS011;39547;45.554;12.068;2024-03-23T05:38:23;45.80;;;29.73;;
53644;SDS011;39547;45.554;12.068;2024-03-23T05:44:25;46.03;;;28.17;;
53644;SDS011;39547;45.554;12.068;2024-03-23T05:50:27;47.38;;;28.98;;
53644;SDS011;39547;45.554;12.068;2024-03-23T05:56:28;43.35;;;27.65;;
53644;SDS011;39547;45.554;12.068;2024-03-23T06:02:30;45.00;;;29.10;;
53644;SDS011;39547;45.554;12.068;2024-03-23T06:08:31;48.60;;;28.88;;
53644;SDS011;39547;45.554;12.068;2024-03-23T06:14:33;46.35;;;28.35;;
53644;SDS011;39547;45.554;12.068;2024-03-23T06:20:35;49.65;;;29.98;;
53644;SDS011;39547;45.554;12.068;2024-03-23T06:26:37;46.25;;;28.42;;
53644;SDS011;39547;45.554;12.068;2024-03-23T06:32:39;45.30;;;27.65;;
53644;SDS011;39547;45.554;12.068;2024-03-23T06:38:40;43.70;;;27.50;;
53644;SDS011;39547;45.554;12.068;2024-03-23T06:44:42;49.80;;;29.73;;
53644;SDS011;39547;45.554;12.068;2024-03-23T06:50:45;43.00;;;27.08;;
53644;SDS011;39547;45.554;12.068;2024-03-23T06:56:47;43.55;;;27.50;;
53644;SDS011;39547;45.554;12.068;2024-03-23T07:02:55;42.92;;;25.63;;
53644;SDS011;39547;45.554;12.068;2024-03-23T07:09:00;42.92;;;26.70;;
53644;SDS011;39547;45.554;12.068;2024-03-23T07:15:02;48.97;;;29.63;;
53644;SDS011;39547;45.554;12.068;2024-03-23T07:21:04;43.83;;;26.73;;
53644;SDS011;39547;45.554;12.068;2024-03-23T07:27:07;45.27;;;26.97;;
53644;SDS011;39547;45.554;12.068;2024-03-23T07:33:10;43.67;;;27.38;;
53644;SDS011;39547;45.554;12.068;2024-03-23T07:39:12;42.35;;;26.20;;
53644;SDS011;39547;45.554;12.068;2024-03-23T07:45:16;45.42;;;28.02;;
53644;SDS011;39547;45.554;12.068;2024-03-23T07:51:22;43.75;;;27.70;;
53644;SDS011;39547;45.554;12.068;2024-03-23T07:57:27;48.65;;;29.23;;
53644;SDS011;39547;45.554;12.068;2024-03-23T08:03:32;46.17;;;28.30;;
53644;SDS011;39547;45.554;12.068;2024-03-23T08:09:33;44.40;;;27.77;;
53644;SDS011;39547;45.554;12.068;2024-03-23T08:15:36;46.88;;;28.08;;
53644;SDS011;39547;45.554;12.068;2024-03-23T08:21:38;45.78;;;27.85;;
53644;SDS011;39547;45.554;12.068;2024-03-23T08:27:40;44.67;;;26.92;;
53644;SDS011;39547;45.554;12.068;2024-03-23T08:33:42;45.20;;;28.33;;
53644;SDS011;39547;45.554;12.068;2024-03-23T08:39:47;43.58;;;27.52;;
53644;SDS011;39547;45.554;12.068;2024-03-23T08:45:48;42.97;;;27.05;;
53644;SDS011;39547;45.554;12.068;2024-03-23T08:51:50;44.67;;;28.35;;
53644;SDS011;39547;45.554;12.068;2024-03-23T08:57:55;45.40;;;28.60;;
53644;SDS011;39547;45.554;12.068;2024-03-23T09:03:57;47.15;;;29.73;;
53644;SDS011;39547;45.554;12.068;2024-03-23T09:10:00;45.33;;;28.58;;
53644;SDS011;39547;45.554;12.068;2024-03-23T09:16:04;45.33;;;29.00;;
53644;SDS011;39547;45.554;12.068;2024-03-23T09:22:08;42.75;;;27.63;;
53644;SDS011;39547;45.554;12.068;2024-03-23T09:28:14;47.67;;;28.05;;
53644;SDS011;39547;45.554;12.068;2024-03-23T09:34:16;40.28;;;24.77;;
53644;SDS011;39547;45.554;12.068;2024-03-23T09:40:25;39.22;;;25.13;;
53644;SDS011;39547;45.554;12.068;2024-03-23T09:46:27;41.40;;;25.98;;
53644;SDS011;39547;45.554;12.068;2024-03-23T09:52:29;38.72;;;24.27;;
53644;SDS011;39547;45.554;12.068;2024-03-23T09:58:31;38.67;;;22.77;;
53644;SDS011;39547;45.554;12.068;2024-03-23T10:04:39;35.72;;;22.20;;
53644;SDS011;39547;45.554;12.068;2024-03-23T10:10:47;35.35;;;21.52;;
53644;SDS011;39547;45.554;12.068;2024-03-23T10:16:51;32.40;;;19.38;;
53644;SDS011;39547;45.554;12.068;2024-03-23T10:22:56;35.95;;;21.55;;
53644;SDS011;39547;45.554;12.068;2024-03-23T10:29:14;29.58;;;18.63;;
53644;SDS011;39547;45.554;12.068;2024-03-23T10:35:19;28.02;;;17.23;;
53644;SDS011;39547;45.554;12.068;2024-03-23T10:41:27;28.58;;;16.77;;
53644;SDS011;39547;45.554;12.068;2024-03-23T10:47:35;29.40;;;18.45;;
53644;SDS011;39547;45.554;12.068;2024-03-23T10:53:39;29.55;;;17.52;;
53644;SDS011;39547;45.554;12.068;2024-03-23T10:59:43;26.90;;;17.00;;
53644;SDS011;39547;45.554;12.068;2024-03-23T11:05:52;27.27;;;15.93;;
53644;SDS011;39547;45.554;12.068;2024-03-23T11:11:54;23.52;;;14.07;;
53644;SDS011;39547;45.554;12.068;2024-03-23T11:18:02;23.90;;;14.93;;
53644;SDS011;39547;45.554;12.068;2024-03-23T11:24:13;23.23;;;13.13;;
53644;SDS011;39547;45.554;12.068;2024-03-23T11:36:28;23.88;;;13.57;;
53644;SDS011;39547;45.554;12.068;2024-03-23T11:42:30;23.05;;;13.93;;
53644;SDS011;39547;45.554;12.068;2024-03-23T11:48:41;26.00;;;15.55;;
53644;SDS011;39547;45.554;12.068;2024-03-23T11:55:03;23.15;;;13.52;;
53644;SDS011;39547;45.554;12.068;2024-03-23T12:01:09;24.42;;;14.02;;
53644;SDS011;39547;45.554;12.068;2024-03-23T12:07:16;22.55;;;12.77;;
53644;SDS011;39547;45.554;12.068;2024-03-23T12:13:32;21.98;;;12.35;;
53644;SDS011;39547;45.554;12.068;2024-03-23T12:19:34;24.25;;;13.73;;
53644;SDS011;39547;45.554;12.068;2024-03-23T12:25:42;22.25;;;13.60;;
53644;SDS011;39547;45.554;12.068;2024-03-23T12:31:45;22.07;;;13.67;;
53644;SDS011;39547;45.554;12.068;2024-03-23T12:37:48;24.20;;;14.10;;
53644;SDS011;39547;45.554;12.068;2024-03-23T12:43:53;24.33;;;14.73;;
53644;SDS011;39547;45.554;12.068;2024-03-23T12:50:00;25.15;;;14.30;;
53644;SDS011;39547;45.554;12.068;2024-03-23T12:56:04;23.45;;;13.80;;
53644;SDS011;39547;45.554;12.068;2024-03-23T13:02:09;22.05;;;13.48;;
53644;SDS011;39547;45.554;12.068;2024-03-23T13:08:12;21.20;;;12.93;;
53644;SDS011;39547;45.554;12.068;2024-03-23T13:14:16;23.23;;;15.02;;
53644;SDS011;39547;45.554;12.068;2024-03-23T13:20:18;22.85;;;14.27;;
53644;SDS011;39547;45.554;12.068;2024-03-23T13:26:23;24.58;;;15.75;;
53644;SDS011;39547;45.554;12.068;2024-03-23T13:32:25;25.67;;;16.00;;
53644;SDS011;39547;45.554;12.068;2024-03-23T13:38:29;25.85;;;15.75;;
53644;SDS011;39547;45.554;12.068;2024-03-23T13:44:47;24.35;;;15.10;;
53644;SDS011;39547;45.554;12.068;2024-03-23T13:51:01;26.38;;;16.63;;
53644;SDS011;39547;45.554;12.068;2024-03-23T13:57:07;29.38;;;19.35;;
53644;SDS011;39547;45.554;12.068;2024-03-23T14:03:12;33.08;;;20.33;;
53644;SDS011;39547;45.554;12.068;2024-03-23T14:09:15;33.53;;;21.60;;
53644;SDS011;39547;45.554;12.068;2024-03-23T14:15:24;28.33;;;16.90;;
53644;SDS011;39547;45.554;12.068;2024-03-23T14:21:26;29.30;;;18.40;;
53644;SDS011;39547;45.554;12.068;2024-03-23T14:27:31;29.80;;;18.35;;
53644;SDS011;39547;45.554;12.068;2024-03-23T14:33:45;26.42;;;16.80;;
53644;SDS011;39547;45.554;12.068;2024-03-23T14:40:17;27.15;;;17.58;;
53644;SDS011;39547;45.554;12.068;2024-03-23T14:46:30;28.50;;;18.25;;
53644;SDS011;39547;45.554;12.068;2024-03-23T14:52:32;30.65;;;18.83;;
53644;SDS011;39547;45.554;12.068;2024-03-23T14:58:34;27.90;;;17.02;;
53644;SDS011;39547;45.554;12.068;2024-03-23T15:04:36;31.00;;;18.65;;
53644;SDS011;39547;45.554;12.068;2024-03-23T15:10:38;28.75;;;17.77;;
53644;SDS011;39547;45.554;12.068;2024-03-23T15:16:43;31.00;;;19.60;;
53644;SDS011;39547;45.554;12.068;2024-03-23T15:22:51;29.67;;;18.92;;
53644;SDS011;39547;45.554;12.068;2024-03-23T15:28:53;29.90;;;18.92;;
53644;SDS011;39547;45.554;12.068;2024-03-23T15:35:00;29.00;;;18.25;;
53644;SDS011;39547;45.554;12.068;2024-03-23T15:41:05;30.80;;;18.63;;
53644;SDS011;39547;45.554;12.068;2024-03-23T15:47:10;29.60;;;18.90;;
53644;SDS011;39547;45.554;12.068;2024-03-23T15:53:15;28.48;;;16.73;;
53644;SDS011;39547;45.554;12.068;2024-03-23T15:59:28;28.45;;;16.90;;
53644;SDS011;39547;45.554;12.068;2024-03-23T16:05:54;24.50;;;15.13;;
53644;SDS011;39547;45.554;12.068;2024-03-23T16:12:01;24.30;;;14.68;;
53644;SDS011;39547;45.554;12.068;2024-03-23T16:18:05;25.73;;;15.63;;
53644;SDS011;39547;45.554;12.068;2024-03-23T16:24:09;21.80;;;11.73;;
53644;SDS011;39547;45.554;12.068;2024-03-23T16:30:30;21.42;;;11.57;;
53644;SDS011;39547;45.554;12.068;2024-03-23T16:36:36;22.88;;;12.23;;
53644;SDS011;39547;45.554;12.068;2024-03-23T16:42:45;21.90;;;11.93;;
53644;SDS011;39547;45.554;12.068;2024-03-23T16:48:47;20.52;;;11.43;;
53644;SDS011;39547;45.554;12.068;2024-03-23T16:54:52;22.45;;;11.70;;
53644;SDS011;39547;45.554;12.068;2024-03-23T17:00:53;23.13;;;12.35;;
53644;SDS011;39547;45.554;12.068;2024-03-23T17:06:57;23.48;;;12.55;;
53644;SDS011;39547;45.554;12.068;2024-03-23T17:12:59;22.05;;;11.73;;
53644;SDS011;39547;45.554;12.068;2024-03-23T17:19:04;22.40;;;11.65;;
53644;SDS011;39547;45.554;12.068;2024-03-23T17:25:06;22.92;;;11.55;;
53644;SDS011;39547;45.554;12.068;2024-03-23T17:31:15;23.08;;;12.75;;
53644;SDS011;39547;45.554;12.068;2024-03-23T17:37:20;23.55;;;12.10;;
53644;SDS011;39547;45.554;12.068;2024-03-23T17:44:11;21.52;;;11.65;;
53644;SDS011;39547;45.554;12.068;2024-03-23T18:11:09;23.17;;;12.32;;
53644;SDS011;39547;45.554;12.068;2024-03-23T18:17:13;22.60;;;13.02;;
53644;SDS011;39547;45.554;12.068;2024-03-23T18:23:22;22.00;;;11.88;;
53644;SDS011;39547;45.554;12.068;2024-03-23T18:29:27;22.20;;;12.32;;
53644;SDS011;39547;45.554;12.068;2024-03-23T18:35:33;24.67;;;13.23;;
53644;SDS011;39547;45.554;12.068;2024-03-23T19:21:55;23.33;;;12.85;;
53644;SDS011;39547;45.554;12.068;2024-03-23T19:28:00;27.00;;;15.20;;
53644;SDS011;39547;45.554;12.068;2024-03-23T19:34:06;22.90;;;13.40;;
53644;SDS011;39547;45.554;12.068;2024-03-23T19:40:11;24.08;;;13.13;;
53644;SDS011;39547;45.554;12.068;2024-03-23T19:46:16;26.38;;;14.18;;
53644;SDS011;39547;45.554;12.068;2024-03-23T19:52:19;26.75;;;15.43;;
53644;SDS011;39547;45.554;12.068;2024-03-23T19:58:26;25.10;;;14.93;;
53644;SDS011;39547;45.554;12.068;2024-03-23T20:04:29;27.80;;;16.33;;
53644;SDS011;39547;45.554;12.068;2024-03-23T20:10:31;33.20;;;19.40;;
53644;SDS011;39547;45.554;12.068;2024-03-23T20:16:33;38.47;;;22.73;;
53644;SDS011;39547;45.554;12.068;2024-03-23T20:22:36;32.47;;;18.83;;
53644;SDS011;39547;45.554;12.068;2024-03-23T20:28:48;34.03;;;19.88;;
53644;SDS011;39547;45.554;12.068;2024-03-23T20:34:59;36.38;;;21.52;;
53644;SDS011;39547;45.554;12.068;2024-03-23T20:41:10;32.13;;;20.45;;
53644;SDS011;39547;45.554;12.068;2024-03-23T20:47:28;36.63;;;21.98;;
53644;SDS011;39547;45.554;12.068;2024-03-23T20:53:45;35.00;;;21.55;;
53644;SDS011;39547;45.554;12.068;2024-03-23T20:59:51;41.38;;;26.60;;
53644;SDS011;39547;45.554;12.068;2024-03-23T21:06:00;43.00;;;28.23;;
53644;SDS011;39547;45.554;12.068;2024-03-23T21:12:07;45.15;;;29.02;;
53644;SDS011;39547;45.554;12.068;2024-03-23T21:18:14;43.97;;;28.25;;
53644;SDS011;39547;45.554;12.068;2024-03-23T21:24:16;42.03;;;26.50;;
53644;SDS011;39547;45.554;12.068;2024-03-23T21:30:20;39.90;;;25.83;;
53644;SDS011;39547;45.554;12.068;2024-03-23T21:36:23;33.58;;;21.42;;
53644;SDS011;39547;45.554;12.068;2024-03-23T21:42:26;38.22;;;23.88;;
53644;SDS011;39547;45.554;12.068;2024-03-23T21:48:29;32.45;;;20.60;;
53644;SDS011;39547;45.554;12.068;2024-03-23T21:54:35;30.85;;;18.08;;
53644;SDS011;39547;45.554;12.068;2024-03-23T22:00:42;29.88;;;18.42;;
53644;SDS011;39547;45.554;12.068;2024-03-23T22:06:46;29.23;;;17.75;;
53644;SDS011;39547;45.554;12.068;2024-03-23T22:12:47;26.63;;;16.10;;
53644;SDS011;39547;45.554;12.068;2024-03-23T22:18:49;23.70;;;14.23;;
53644;SDS011;39547;45.554;12.068;2024-03-23T22:24:51;25.80;;;14.27;;
53644;SDS011;39547;45.554;12.068;2024-03-23T22:30:54;22.50;;;12.18;;
53644;SDS011;39547;45.554;12.068;2024-03-23T22:37:00;21.13;;;11.40;;
53644;SDS011;39547;45.554;12.068;2024-03-23T22:43:02;18.77;;;9.70;;
53644;SDS011;39547;45.554;12.068;2024-03-23T22:49:04;18.08;;;9.60;;
53644;SDS011;39547;45.554;12.068;2024-03-23T22:55:06;17.70;;;9.05;;
53644;SDS011;39547;45.554;12.068;2024-03-23T23:01:08;16.88;;;8.07;;
53644;SDS011;39547;45.554;12.068;2024-03-23T23:07:16;16.70;;;8.02;;
53644;SDS011;39547;45.554;12.068;2024-03-23T23:13:17;16.23;;;7.60;;
53644;SDS011;39547;45.554;12.068;2024-03-23T23:19:19;16.08;;;7.72;;
53644;SDS011;39547;45.554;12.068;2024-03-23T23:25:21;15.75;;;7.57;;
53644;SDS011;39547;45.554;12.068;2024-03-23T23:31:23;15.38;;;7.13;;
53644;SDS011;39547;45.554;12.068;2024-03-23T23:37:25;14.65;;;6.90;;
53644;SDS011;39547;45.554;12.068;2024-03-23T23:43:28;15.50;;;6.32;;
53644;SDS011;39547;45.554;12.068;2024-03-23T23:49:29;13.73;;;5.55;;
53644;SDS011;39547;45.554;12.068;2024-03-23T23:55:31;13.88;;;5.50;;
